Archival Weather

Norman Y Mineta San Jose Intl

San Jose, California (KSJC)

Report from: Saturday, September 30, 2023 1:53 PM PDT
Current time: Thursday, July 18, 2024 6:48 PM PDT

Current weather – Weather history – Daily summaries
Weather forecast

Temperature19.4°C (66.9°F)
Dew point12.2°C (54.0°F)
Winds 5 kts (2.6 m/s, 5.8 mph) North (10°)
Visibility10 mi. (16.1 km)
Clouds Few clouds 900 ft. (274 m)
Ceiling: Broken clouds 2,600 ft. (792 m)
Overcast 3,600 ft. (1,097 m)
Altimeter29.80 in.Hg (1009 mB)
Relative humidity63 %
Density altitude852 ft. (260 m)
Sea-level pressure100.9 kPa (1009 mB, 29.80 in.Hg)
Remarks Automated weather observing station with precipitation discriminator
Pressure falling more quickly
Flight conditions Marginal Visual Meteorological Conditions
Raw dataKSJC 302053Z 01005KT 10SM FEW009 BKN026 OVC036 19/12 A2980 RMK AO2 SLP092 T01940122 58004
An error has occurred. This application may no longer respond until reloaded. Reload 🗙